Swink, Oklahoma
Current Conditions -  °F | °C
As of 8:55 AM on Saturday 20 Dec 2014 (Local Time) from KHHW Reporting Station
Haze Haze  
Wind Chill: 46°   Ceiling: 600
Heat Index: 46°   Visibility: 5mi
Dew Point: 42°   Wind: 0mph
Humidity: 88%   Direction: NA
Pressure: 30.25"   Gusts: NA
Location:  34.02°N, 95.2°W
Report Text: KHHW 201455Z AUTO 00000KT 5SM BR OVC006 08/06 A3025 RMK AO2 T00750056
Loading
Personal Weather Stations






























Interactive Weather Map New forecast layout! Learn more

10-Day Weather Forecast

Advertisements
Track Severe Weather on mobile